Pala Temecula (TM1) Station Data

Red Flag Warning: No
Fire Weather Zone: 250
SDGE Region: North East
Lat/Lon: 33.419/-117.082

Observations

Time Wind Speed/Gust Temp(F) RH Fuel Moist Fuel Temp(F) Dewpt(F) Tmax(F) Tmin(F) Accum Precip 10-min Precip SL Press(mb)
4/29 11:50pm 327 3 G 5 60° 22% - - 21° 83.5° 57° - - 864.0
4/29 11:40pm 333 4 G 5 62° 21% - - 21° 83.5° 57° - - 864.0
4/29 11:30pm 334 3 G 5 62° 20% - - 21° 83.5° 57° - - 864.0
4/29 11:20pm 319 3 G 5 63° 20% - - 22° 83.5° 57° - - 864.0
4/29 11:10pm 0 0 G 0 64° 20% - - 21° 83.5° 57° - - 864.0
4/29 11:00pm 28 1 G 3 64° 20% - - 22° 83.5° 57° - - 864.0
4/29 10:50pm 134 3 G 4 65° 19% - - 22° 83.5° 57° - - 864.0
4/29 10:40pm 152 3 G 4 64° 20% - - 22° 83.5° 57° - - 864.0
4/29 10:30pm 157 2 G 3 64° 21% - - 23° 83.5° 57° - - 865.0
4/29 10:20pm 166 1 G 2 63° 21% - - 23° 83.5° 57° - - 865.0
4/29 10:10pm 168 2 G 5 64° 21% - - 23° 83.5° 57° - - 865.0
4/29 10:00pm 167 2 G 3 64° 21% - - 23° 83.5° 57° - - 865.0
4/29 9:50pm 212 2 G 4 64° 20% - - 22° 83.5° 57° - - 865.0
4/29 9:40pm 174 3 G 7 63° 21% - - 22° 83.5° 57° - - 865.0
4/29 9:30pm 169 4 G 8 64° 20% - - 22° 83.5° 57° - - 865.0
4/29 9:20pm 160 5 G 7 65° 19% - - 21° 83.5° 57° - - 864.0
4/29 9:10pm 154 6 G 9 65° 18% - - 21° 83.5° 57° - - 864.0
4/29 9:00pm 168 4 G 8 64° 19% - - 21° 83.5° 57° - - 865.0
4/29 8:50pm 154 7 G 11 65° 19% - - 22° 83.5° 57° - - 865.0
4/29 8:40pm 156 7 G 11 65° 19% - - 22° 83.5° 57° - - 865.0
4/29 8:30pm 154 6 G 9 65° 18% - - 21° 83.5° 57° - - 865.0
4/29 8:20pm 164 5 G 9 65° 19% - - 22° 83.5° 57° - - 865.0
4/29 8:10pm 152 6 G 10 66° 19% - - 22° 83.5° 57° - - 865.0
4/29 8:00pm 161 5 G 9 66° 19% - - 23° 83.5° 57° - - 866.0
4/29 7:50pm 172 5 G 9 66° 20% - - 24° 83.5° 57° - - 866.0
4/29 7:40pm 174 5 G 8 67° 19% - - 24° 83.5° 57° - - 866.0
4/29 7:30pm 171 5 G 10 68° 19% - - 24° 83.5° 57° - - 867.0
4/29 7:20pm 180 5 G 10 68° 20% - - 26° 83.5° 57° - - 867.0
4/29 7:10pm 184 5 G 10 69° 20% - - 26° 83.5° 57° - - 867.0
4/29 7:00pm 181 5 G 8 71° 18% - - 26° 83.5° 57° - - 867.0
4/29 6:50pm 190 5 G 10 72° 18% - - 25° 83.5° 57° - - 868.0
4/29 6:40pm 193 4 G 8 73° 16% - - 24° 83.5° 57° - - 867.0
4/29 6:30pm 194 5 G 12 73° 14% - - 22° 83.5° 57° - - 867.0
4/29 6:20pm 186 6 G 13 74° 13% - - 21° 83.5° 57° - - 867.0
4/29 6:10pm 192 6 G 11 75° 13% - - 21° 83.5° 57° - - 867.0
4/29 6:00pm 194 6 G 11 76° 13% - - 21° 83.5° 57° - - 868.0
4/29 5:50pm 171 6 G 11 76° 13% - - 21° 83.5° 57° - - 868.0
4/29 5:40pm 164 6 G 12 77° 12% - - 21° 83.5° 57° - - 868.0
4/29 5:30pm 179 5 G 11 78° 12% - - 22° 83.5° 57° - - 868.0
4/29 5:20pm 170 6 G 13 78° 12% - - 22° 83.5° 57° - - 869.0
4/29 5:10pm 165 6 G 15 79° 12% - - 22° 83.5° 57° - - 869.0
4/29 5:00pm 178 6 G 11 79° 12% - - 22° 83.5° 57° - - 869.0
4/29 4:50pm 166 7 G 16 79° 12% - - 22° 83.5° 57° - - 870.0
4/29 4:40pm 195 7 G 15 79° 12% - - 21° 83.5° 57° - - 870.0
4/29 4:30pm 186 7 G 14 79° 12% - - 21° 83.5° 57° - - 870.0
4/29 4:20pm 185 6 G 13 79° 12% - - 21° 83.5° 57° - - 870.0
4/29 4:10pm 187 8 G 18 79° 11% - - 21° 83.5° 57° - - 871.0
4/29 4:00pm 179 8 G 15 80° 11% - - 21° 83.5° 57° - - 871.0
4/29 3:50pm 186 8 G 19 80° 11% - - 21° 83.5° 57° - - 871.0
4/29 3:40pm 199 7 G 16 80° 11% - - 21° 83.5° 57° - - 871.0
4/29 3:30pm 274 6 G 12 81° 8% - - 14° 83.5° 57° - - 870.0
4/29 3:20pm 267 5 G 13 81° 7% - - 11° 83.5° 57° - - 870.0
4/29 3:10pm 285 6 G 12 82° 7% - - 13° 83.5° 57° - - 870.0
4/29 3:00pm 252 10 G 16 80° 7% - - 11° 81.8° 57° - - 869.0
4/29 2:50pm 272 9 G 15 80° 7% - - 11° 81.8° 57° - - 869.0
4/29 2:40pm 295 8 G 17 80° 7% - - 11° 81.8° 57° - - 869.0
4/29 2:30pm 319 6 G 16 80° 7% - - 10° 81.8° 57° - - 869.0
4/29 2:20pm 329 6 G 13 81° 7% - - 11° 81.4° 57° - - 869.0
4/29 2:10pm 320 8 G 14 80° 7% - - 10° 81.3° 57° - - 868.0
4/29 2:00pm 286 8 G 15 80° 7% - - 10° 81.3° 57° - - 869.0
4/29 1:50pm 307 7 G 17 80° 7% - - 11° 81.3° 57° - - 869.0
4/29 1:40pm 327 4 G 12 80° 7% - - 11° 81.1° 57° - - 869.0
4/29 1:30pm 346 6 G 15 80° 7% - - 11° 81.1° 57° - - 869.0
4/29 1:20pm 319 4 G 11 80° 7% - - 11° 80.8° 57° - - 869.0
4/29 1:10pm 305 6 G 12 79° 8% - - 12° 80.4° 57° - - 869.0
4/29 1:00pm 307 7 G 17 79° 8% - - 11° 79.8° 57° - - 869.0
4/29 12:50pm 295 4 G 10 79° 8% - - 11° 79.8° 57° - - 868.0
4/29 12:40pm 331 5 G 11 78° 8% - - 11° 79.2° 57° - - 868.0
4/29 12:30pm 306 9 G 16 77° 8% - - 11° 77.9° 57° - - 868.0
4/29 12:20pm 313 9 G 14 77° 8% - - 11° 77.6° 57° - - 868.0
4/29 12:10pm 292 9 G 17 76° 8% - - 11° 77.1° 57° - - 868.0
4/29 12:00pm 333 8 G 16 76° 8% - - 11° 77.1° 57° - - 868.0
4/29 11:50am 317 6 G 15 76° 8% - - 10° 77° 57° - - 868.0
4/29 11:40am 344 7 G 12 76° 8% - - 11° 77° 57° - - 868.0
4/29 11:30am 309 8 G 15 75° 8% - - 11° 75.9° 57° - - 867.0
4/29 11:20am 327 7 G 12 75° 8% - - 11° 75.4° 57° - - 867.0
4/29 11:10am 327 8 G 14 74° 9% - - 12° 74.9° 57° - - 867.0
4/29 11:00am 313 10 G 17 74° 9% - - 12° 74.8° 57° - - 867.0
4/29 10:50am 313 9 G 18 73° 9% - - 12° 74.3° 57° - - 866.0
4/29 10:40am 333 9 G 17 73° 10% - - 13° 74° 57° - - 866.0
4/29 10:30am 328 9 G 18 72° 10% - - 12° 73° 57° - - 866.0
4/29 10:20am 319 10 G 16 72° 10% - - 12° 72.4° 57° - - 866.0
4/29 10:10am 323 9 G 15 72° 10% - - 13° 72.3° 57° - - 866.0
4/29 10:00am 320 9 G 15 71° 11% - - 13° 71.6° 57° - - 865.0
4/29 9:50am 318 7 G 14 71° 11% - - 14° 71.6° 57° - - 865.0
4/29 9:40am 319 8 G 15 70° 12% - - 15° 70.7° 57° - - 865.0
4/29 9:30am 313 9 G 16 69° 12% - - 14° 69.7° 57° - - 865.0
4/29 9:20am 321 9 G 16 68° 13% - - 15° 68.9° 57° - - 864.0
4/29 9:10am 321 10 G 15 67° 13% - - 14° 67.5° 57° - - 864.0
4/29 9:00am 324 12 G 19 66° 12% - - 13° 67.1° 57° - - 864.0
4/29 8:50am 326 11 G 18 66° 12% - - 12° 66.8° 57° - - 863.0
4/29 8:40am 319 10 G 16 66° 12% - - 12° 66.8° 57° - - 863.0
4/29 8:30am 326 11 G 19 66° 12% - - 13° 66.5° 57° - - 863.0
4/29 8:20am 340 11 G 19 66° 13% - - 13° 66.5° 57° - - 863.0
4/29 8:10am 337 12 G 22 65° 13% - - 13° 66.5° 57° - - 863.0
4/29 8:00am 329 12 G 20 64° 13% - - 13° 66.5° 57° - - 862.0
4/29 7:50am 327 13 G 21 64° 13% - - 12° 66.5° 57° - - 862.0
4/29 7:40am 328 13 G 21 63° 13% - - 11° 66.5° 57° - - 861.0
4/29 7:30am 326 13 G 19 61° 14% - - 12° 66.5° 57° - - 861.0
4/29 7:20am 320 13 G 19 60° 15% - - 12° 66.5° 57° - - 861.0
4/29 7:10am 328 14 G 22 60° 15% - - 12° 66.5° 57° - - 861.0
4/29 7:00am 338 14 G 22 59° 15% - - 12° 66.5° 57° - - 861.0
4/29 6:50am 336 15 G 22 58° 16% - - 12° 66.5° 57° - - 861.0
4/29 6:40am 333 15 G 21 57° 17% - - 13° 66.5° 57° - - 862.0
4/29 6:30am 338 14 G 21 58° 16% - - 12° 66.5° 57.1° - - 861.0
4/29 6:20am 332 13 G 19 58° 16% - - 12° 66.5° 57.1° - - 861.0
4/29 6:10am 327 13 G 19 58° 16% - - 12° 66.5° 57.5° - - 861.0
4/29 6:00am 333 12 G 20 60° 13% - - 10° 66.5° 57.7° - - 861.0
4/29 5:50am 346 10 G 18 61° 13% - - 10° 66.5° 57.7° - - 861.0
4/29 5:40am 349 12 G 20 61° 13% - - 10° 66.5° 57.7° - - 861.0
4/29 5:30am 342 12 G 18 59° 15% - - 11° 66.5° 57.7° - - 861.0
4/29 5:20am 342 10 G 16 60° 14% - - 11° 66.5° 57.7° - - 861.0
4/29 5:10am 347 10 G 17 60° 14% - - 11° 66.5° 57.7° - - 861.0
4/29 5:00am 340 10 G 15 59° 15% - - 12° 66.5° 57.7° - - 862.0
4/29 4:50am 344 9 G 14 61° 14% - - 11° 66.5° 57.7° - - 861.0
4/29 4:40am 13 12 G 20 63° 12% - - 66.5° 57.7° - - 861.0
4/29 4:30am 353 9 G 16 62° 13% - - 10° 66.5° 57.7° - - 861.0
4/29 4:20am 345 9 G 16 62° 13% - - 10° 66.5° 57.7° - - 861.0
4/29 4:10am 348 9 G 15 62° 13% - - 10° 66.5° 57.7° - - 862.0
4/29 4:00am 349 9 G 17 63° 13% - - 11° 66.5° 57.7° - - 862.0
4/29 3:50am 6 10 G 18 65° 12% - - 10° 66.5° 57.7° - - 862.0
4/29 3:40am 23 10 G 21 65° 11% - - 10° 66.5° 57.7° - - 861.0
4/29 3:30am 26 10 G 18 65° 11% - - 10° 66.5° 57.7° - - 862.0
4/29 3:20am 20 10 G 18 65° 12% - - 11° 66.5° 57.7° - - 862.0
4/29 3:10am 30 10 G 18 66° 11% - - 11° 66.5° 57.7° - - 862.0
4/29 3:00am 18 10 G 26 66° 11% - - 11° 66.5° 57.7° - - 862.0
4/29 2:50am 30 9 G 18 66° 12% - - 11° 66.4° 57.7° - - 862.0
4/29 2:40am 8 8 G 15 63° 15% - - 15° 64.4° 57.7° - - 863.0
4/29 2:30am 348 9 G 14 62° 18% - - 19° 62.9° 57.7° - - 864.0
4/29 2:20am 336 9 G 14 61° 21% - - 21° 62.4° 57.7° - - 864.0
4/29 2:10am 331 9 G 15 61° 23% - - 23° 62.4° 57.7° - - 865.0
4/29 2:00am 329 10 G 19 62° 23% - - 24° 62.4° 57.7° - - 865.0
4/29 1:50am 331 10 G 16 61° 25% - - 25° 62.2° 57.7° - - 866.0
4/29 1:40am 323 12 G 17 61° 32% - - 31° 61.6° 57.7° - - 869.0
4/29 1:30am 319 13 G 18 60° 38% - - 34° 61.6° 57.7° - - 871.0
4/29 1:20am 320 11 G 17 60° 43% - - 37° 61.6° 57.7° - - 873.0
4/29 1:10am 351 7 G 13 59° 45% - - 38° 61.6° 57.7° - - 874.0
4/29 1:00am 325 10 G 16 60° 42% - - 37° 61.6° 57.7° - - 873.0
4/29 12:50am 321 10 G 14 60° 44% - - 38° 61.6° 57.7° - - 873.0
4/29 12:40am 334 9 G 13 59° 46% - - 38° 61.6° 57.7° - - 874.0
4/29 12:30am 332 10 G 15 60° 40% - - 36° 61.6° 59.3° - - 872.0
4/29 12:20am 319 10 G 15 61° 38% - - 35° 61.6° 60.6° - - 871.0
4/29 12:10am 315 10 G 16 61° 39% - - 36° 61.6° 60.6° - - 872.0
4/29 12:00am 321 9 G 13 61° 40% - - 36° 78.2° 50.8° - - 872.0
4/28 11:50pm 333 8 G 13 60° 41% - - 37° 78.2° 50.8° - - 872.0
4/28 11:40pm 329 8 G 13 60° 43% - - 37° 78.2° 50.8° - - 873.0
4/28 11:30pm 333 7 G 10 59° 46% - - 38° 78.2° 50.8° - - 874.0
4/28 11:20pm 332 6 G 7 59° 48% - - 39° 78.2° 50.8° - - 875.0
4/28 11:10pm 305 6 G 7 58° 49% - - 39° 78.2° 50.8° - - 875.0
4/28 11:00pm 315 4 G 7 58° 48% - - 38° 78.2° 50.8° - - 875.0
4/28 10:50pm 337 4 G 10 60° 45% - - 38° 78.2° 50.8° - - 874.0
4/28 10:40pm 346 4 G 8 60° 44% - - 38° 78.2° 50.8° - - 874.0
4/28 10:30pm 339 5 G 10 61° 42% - - 38° 78.2° 50.8° - - 873.0
4/28 10:20pm 307 3 G 5 62° 41% - - 38° 78.2° 50.8° - - 873.0
4/28 10:10pm 57 1 G 2 63° 40% - - 38° 78.2° 50.8° - - 873.0
4/28 10:00pm 332 1 G 3 63° 41% - - 38° 78.2° 50.8° - - 873.0
4/28 9:50pm 313 2 G 5 62° 43% - - 39° 78.2° 50.8° - - 874.0
4/28 9:40pm 172 1 G 2 61° 43% - - 39° 78.2° 50.8° - - 874.0
4/28 9:30pm 184 2 G 4 61° 43% - - 39° 78.2° 50.8° - - 874.0
4/28 9:20pm 154 4 G 6 62° 43% - - 39° 78.2° 50.8° - - 874.0
4/28 9:10pm 163 4 G 6 61° 43% - - 39° 78.2° 50.8° - - 874.0
4/28 9:00pm 152 5 G 7 62° 43% - - 39° 78.2° 50.8° - - 874.0
4/28 8:50pm 162 4 G 6 62° 43% - - 39° 78.2° 50.8° - - 874.0
4/28 8:40pm 149 4 G 8 62° 43% - - 39° 78.2° 50.8° - - 874.0
4/28 8:30pm 153 5 G 7 62° 43% - - 40° 78.2° 50.8° - - 874.0
4/28 8:20pm 143 5 G 8 62° 43% - - 40° 78.2° 50.8° - - 874.0
4/28 8:10pm 163 4 G 8 62° 43% - - 40° 78.2° 50.8° - - 875.0
4/28 8:00pm 177 4 G 7 63° 43% - - 40° 78.2° 50.8° - - 875.0
4/28 7:50pm 167 5 G 9 64° 41% - - 39° 78.2° 50.8° - - 874.0
4/28 7:40pm 148 6 G 9 64° 40% - - 39° 78.2° 50.8° - - 874.0
4/28 7:30pm 148 7 G 11 64° 40% - - 39° 78.2° 50.8° - - 874.0
4/28 7:20pm 156 6 G 10 65° 38% - - 39° 78.2° 50.8° - - 874.0
4/28 7:10pm 151 7 G 10 66° 37% - - 39° 78.2° 50.8° - - 874.0
4/28 7:00pm 158 6 G 10 67° 35% - - 38° 78.2° 50.8° - - 873.0
4/28 6:50pm 169 5 G 11 68° 34% - - 38° 78.2° 50.8° - - 873.0
4/28 6:40pm 159 7 G 12 69° 32% - - 38° 78.2° 50.8° - - 873.0
4/28 6:30pm 184 5 G 9 69° 31% - - 37° 78.2° 50.8° - - 873.0
4/28 6:20pm 172 4 G 9 70° 31% - - 37° 78.2° 50.8° - - 873.0
4/28 6:10pm 157 6 G 12 70° 30% - - 37° 78.2° 50.8° - - 873.0
4/28 6:00pm 177 5 G 9 71° 30% - - 38° 78.2° 50.8° - - 873.0